sensor_id;sensor_type;location;lat;lon;timestamp;pressure;altitude;pressure_sealevel;temperature;humidity
63347;BME280;49472;49.880;8.650;2023-02-26T00:01:51;99833.00;;;5.97;46.31
63347;BME280;49472;49.880;8.650;2023-02-26T00:04:18;99826.06;;;6.15;45.90
63347;BME280;49472;49.880;8.650;2023-02-26T00:06:43;99824.34;;;6.16;45.99
63347;BME280;49472;49.880;8.650;2023-02-26T00:09:20;99823.38;;;5.88;45.80
63347;BME280;49472;49.880;8.650;2023-02-26T00:11:46;99820.16;;;6.15;45.97
63347;BME280;49472;49.880;8.650;2023-02-26T00:14:13;99822.19;;;6.24;45.71
63347;BME280;49472;49.880;8.650;2023-02-26T00:16:39;99827.44;;;6.21;45.96
63347;BME280;49472;49.880;8.650;2023-02-26T00:19:06;99828.59;;;6.01;46.20
63347;BME280;49472;49.880;8.650;2023-02-26T00:21:33;99828.34;;;6.34;45.85
63347;BME280;49472;49.880;8.650;2023-02-26T00:23:59;99826.44;;;6.38;45.78
63347;BME280;49472;49.880;8.650;2023-02-26T00:26:27;99828.72;;;6.57;45.32
63347;BME280;49472;49.880;8.650;2023-02-26T00:28:53;99833.81;;;6.57;45.94
63347;BME280;49472;49.880;8.650;2023-02-26T00:31:19;99831.16;;;6.58;46.22
63347;BME280;49472;49.880;8.650;2023-02-26T00:33:49;99832.97;;;6.70;45.99
63347;BME280;49472;49.880;8.650;2023-02-26T00:36:18;99835.31;;;6.16;47.03
63347;BME280;49472;49.880;8.650;2023-02-26T00:38:50;99837.63;;;6.05;47.88
63347;BME280;49472;49.880;8.650;2023-02-26T00:41:18;99833.81;;;6.57;46.98
63347;BME280;49472;49.880;8.650;2023-02-26T00:43:43;99841.31;;;6.72;46.44
63347;BME280;49472;49.880;8.650;2023-02-26T00:46:27;99840.28;;;6.89;46.07
63347;BME280;49472;49.880;8.650;2023-02-26T00:49:22;99841.13;;;6.76;45.67
63347;BME280;49472;49.880;8.650;2023-02-26T00:51:57;99838.88;;;6.57;46.06
63347;BME280;49472;49.880;8.650;2023-02-26T00:54:27;99846.66;;;6.25;46.68
63347;BME280;49472;49.880;8.650;2023-02-26T00:56:54;99850.19;;;6.37;46.30
63347;BME280;49472;49.880;8.650;2023-02-26T00:59:20;99848.84;;;6.45;46.26
63347;BME280;49472;49.880;8.650;2023-02-26T01:01:46;99850.47;;;6.61;46.18
63347;BME280;49472;49.880;8.650;2023-02-26T01:04:13;99857.91;;;6.64;46.11
63347;BME280;49472;49.880;8.650;2023-02-26T01:06:51;99861.53;;;6.31;46.09
63347;BME280;49472;49.880;8.650;2023-02-26T01:11:48;99859.91;;;6.59;46.32
63347;BME280;49472;49.880;8.650;2023-02-26T01:14:14;99855.81;;;6.56;46.56
63347;BME280;49472;49.880;8.650;2023-02-26T01:22:22;99862.97;;;6.92;46.59
63347;BME280;49472;49.880;8.650;2023-02-26T01:24:58;99859.25;;;6.84;46.62
63347;BME280;49472;49.880;8.650;2023-02-26T01:27:25;99859.91;;;6.87;46.82
63347;BME280;49472;49.880;8.650;2023-02-26T01:29:51;99859.25;;;6.98;46.58
63347;BME280;49472;49.880;8.650;2023-02-26T01:32:25;99856.16;;;7.07;46.00
63347;BME280;49472;49.880;8.650;2023-02-26T01:35:12;99858.69;;;7.07;46.47
63347;BME280;49472;49.880;8.650;2023-02-26T01:37:51;99860.44;;;6.78;46.67
63347;BME280;49472;49.880;8.650;2023-02-26T01:40:28;99861.44;;;6.90;46.71
63347;BME280;49472;49.880;8.650;2023-02-26T01:43:02;99867.94;;;7.08;46.81
63347;BME280;49472;49.880;8.650;2023-02-26T01:45:34;99864.44;;;6.68;47.29
63347;BME280;49472;49.880;8.650;2023-02-26T01:48:04;99859.34;;;6.96;46.88
63347;BME280;49472;49.880;8.650;2023-02-26T01:50:34;99866.31;;;7.07;46.65
63347;BME280;49472;49.880;8.650;2023-02-26T01:53:21;99864.94;;;7.16;46.60
63347;BME280;49472;49.880;8.650;2023-02-26T01:55:51;99868.41;;;7.15;46.73
63347;BME280;49472;49.880;8.650;2023-02-26T01:58:20;99865.41;;;6.94;46.67
63347;BME280;49472;49.880;8.650;2023-02-26T02:00:46;99875.84;;;7.04;46.90
63347;BME280;49472;49.880;8.650;2023-02-26T02:03:11;99871.88;;;6.71;47.27
63347;BME280;49472;49.880;8.650;2023-02-26T02:05:49;99876.78;;;7.03;46.85
63347;BME280;49472;49.880;8.650;2023-02-26T02:08:16;99881.78;;;6.76;46.99
63347;BME280;49472;49.880;8.650;2023-02-26T02:10:43;99884.66;;;6.84;46.85
63347;BME280;49472;49.880;8.650;2023-02-26T02:13:16;99882.78;;;6.87;46.72
63347;BME280;49472;49.880;8.650;2023-02-26T02:16:07;99884.47;;;6.87;46.21
63347;BME280;49472;49.880;8.650;2023-02-26T02:18:46;99886.47;;;6.96;46.76
63347;BME280;49472;49.880;8.650;2023-02-26T02:21:39;99891.00;;;6.77;47.14
63347;BME280;49472;49.880;8.650;2023-02-26T02:24:28;99884.22;;;6.77;46.87
63347;BME280;49472;49.880;8.650;2023-02-26T02:30:17;99895.09;;;6.36;47.22
63347;BME280;49472;49.880;8.650;2023-02-26T02:32:50;99894.19;;;6.37;47.29
63347;BME280;49472;49.880;8.650;2023-02-26T02:38:33;99901.88;;;6.36;47.42
63347;BME280;49472;49.880;8.650;2023-02-26T02:41:14;99906.16;;;6.05;47.56
63347;BME280;49472;49.880;8.650;2023-02-26T02:43:41;99915.84;;;5.66;48.65
63347;BME280;49472;49.880;8.650;2023-02-26T02:46:10;99917.75;;;5.63;49.12
63347;BME280;49472;49.880;8.650;2023-02-26T02:48:39;99917.16;;;5.74;49.18
63347;BME280;49472;49.880;8.650;2023-02-26T02:51:10;99914.94;;;5.83;49.31
63347;BME280;49472;49.880;8.650;2023-02-26T02:53:40;99911.84;;;5.78;49.40
63347;BME280;49472;49.880;8.650;2023-02-26T02:56:25;99904.22;;;5.78;49.53
63347;BME280;49472;49.880;8.650;2023-02-26T02:59:00;99907.03;;;5.58;50.12
63347;BME280;49472;49.880;8.650;2023-02-26T03:01:31;99902.84;;;5.73;49.93
63347;BME280;49472;49.880;8.650;2023-02-26T03:04:05;99913.59;;;5.46;50.59
63347;BME280;49472;49.880;8.650;2023-02-26T03:06:32;99914.81;;;5.39;50.73
63347;BME280;49472;49.880;8.650;2023-02-26T03:09:00;99913.16;;;5.70;50.36
63347;BME280;49472;49.880;8.650;2023-02-26T03:11:28;99911.34;;;5.72;50.34
63347;BME280;49472;49.880;8.650;2023-02-26T03:13:53;99911.19;;;5.59;50.05
63347;BME280;49472;49.880;8.650;2023-02-26T03:22:11;99921.88;;;5.50;50.22
63347;BME280;49472;49.880;8.650;2023-02-26T03:24:50;99914.56;;;5.59;50.04
63347;BME280;49472;49.880;8.650;2023-02-26T03:27:35;99922.97;;;5.44;49.78
63347;BME280;49472;49.880;8.650;2023-02-26T03:32:31;99929.44;;;5.34;50.13
63347;BME280;49472;49.880;8.650;2023-02-26T03:35:16;99939.66;;;5.64;49.92
63347;BME280;49472;49.880;8.650;2023-02-26T03:37:48;99936.22;;;5.49;49.70
63347;BME280;49472;49.880;8.650;2023-02-26T03:40:27;99942.84;;;5.36;49.96
63347;BME280;49472;49.880;8.650;2023-02-26T03:43:07;99949.66;;;5.99;48.70
63347;BME280;49472;49.880;8.650;2023-02-26T03:45:36;99949.22;;;5.75;48.80
63347;BME280;49472;49.880;8.650;2023-02-26T03:48:05;99954.81;;;5.50;49.59
63347;BME280;49472;49.880;8.650;2023-02-26T03:53:05;99959.47;;;5.73;49.32
63347;BME280;49472;49.880;8.650;2023-02-26T03:55:40;99960.69;;;5.66;49.24
63347;BME280;49472;49.880;8.650;2023-02-26T03:58:06;99968.28;;;5.82;48.70
63347;BME280;49472;49.880;8.650;2023-02-26T04:00:32;99968.47;;;5.47;49.49
63347;BME280;49472;49.880;8.650;2023-02-26T04:03:06;99975.00;;;5.51;49.96
63347;BME280;49472;49.880;8.650;2023-02-26T04:05:49;99973.94;;;5.71;49.63
63347;BME280;49472;49.880;8.650;2023-02-26T04:08:15;99976.09;;;5.63;49.68
63347;BME280;49472;49.880;8.650;2023-02-26T04:11:04;99980.91;;;5.68;49.74
63347;BME280;49472;49.880;8.650;2023-02-26T04:13:30;99990.97;;;5.53;50.17
63347;BME280;49472;49.880;8.650;2023-02-26T04:15:55;99986.06;;;5.50;50.22
63347;BME280;49472;49.880;8.650;2023-02-26T04:18:21;99985.91;;;5.53;50.00
63347;BME280;49472;49.880;8.650;2023-02-26T04:20:46;99991.31;;;5.47;50.63
63347;BME280;49472;49.880;8.650;2023-02-26T04:23:11;99995.63;;;5.29;51.37
63347;BME280;49472;49.880;8.650;2023-02-26T04:25:37;99990.97;;;5.04;51.91
63347;BME280;49472;49.880;8.650;2023-02-26T04:28:02;99994.28;;;5.22;51.34
63347;BME280;49472;49.880;8.650;2023-02-26T04:30:27;99993.53;;;5.20;51.63
63347;BME280;49472;49.880;8.650;2023-02-26T04:32:52;100001.34;;;4.99;52.44
63347;BME280;49472;49.880;8.650;2023-02-26T04:35:18;99993.78;;;5.15;51.99
63347;BME280;49472;49.880;8.650;2023-02-26T04:37:43;99993.31;;;4.91;52.85
63347;BME280;49472;49.880;8.650;2023-02-26T04:40:09;99995.13;;;5.05;52.64
63347;BME280;49472;49.880;8.650;2023-02-26T04:42:35;99990.59;;;5.12;52.14
63347;BME280;49472;49.880;8.650;2023-02-26T04:45:00;100006.56;;;4.96;52.93
63347;BME280;49472;49.880;8.650;2023-02-26T04:47:25;100003.94;;;4.98;52.96
63347;BME280;49472;49.880;8.650;2023-02-26T04:49:50;100002.72;;;5.05;52.39
63347;BME280;49472;49.880;8.650;2023-02-26T04:52:16;100009.63;;;5.19;52.20
63347;BME280;49472;49.880;8.650;2023-02-26T04:54:41;100016.34;;;5.20;52.66
63347;BME280;49472;49.880;8.650;2023-02-26T04:57:06;100014.41;;;5.41;51.78
63347;BME280;49472;49.880;8.650;2023-02-26T04:59:31;100019.09;;;5.15;52.28
63347;BME280;49472;49.880;8.650;2023-02-26T05:01:57;100024.72;;;5.38;52.05
63347;BME280;49472;49.880;8.650;2023-02-26T05:04:23;100025.69;;;5.35;51.80
63347;BME280;49472;49.880;8.650;2023-02-26T05:06:48;100025.53;;;5.38;52.23
63347;BME280;49472;49.880;8.650;2023-02-26T05:09:13;100035.34;;;5.11;52.51
63347;BME280;49472;49.880;8.650;2023-02-26T05:11:39;100032.00;;;5.11;53.21
63347;BME280;49472;49.880;8.650;2023-02-26T05:14:04;100029.41;;;5.12;53.08
63347;BME280;49472;49.880;8.650;2023-02-26T05:16:29;100039.41;;;5.31;52.40
63347;BME280;49472;49.880;8.650;2023-02-26T05:18:54;100042.06;;;5.12;53.04
63347;BME280;49472;49.880;8.650;2023-02-26T05:21:20;100050.78;;;5.24;52.27
63347;BME280;49472;49.880;8.650;2023-02-26T05:23:46;100051.44;;;5.28;52.49
63347;BME280;49472;49.880;8.650;2023-02-26T05:26:11;100047.69;;;5.02;53.43
63347;BME280;49472;49.880;8.650;2023-02-26T05:28:36;100043.50;;;5.00;53.47
63347;BME280;49472;49.880;8.650;2023-02-26T05:31:02;100044.47;;;4.98;53.71
63347;BME280;49472;49.880;8.650;2023-02-26T05:33:27;100051.47;;;5.10;53.42
63347;BME280;49472;49.880;8.650;2023-02-26T05:35:53;100041.88;;;4.99;53.40
63347;BME280;49472;49.880;8.650;2023-02-26T05:38:18;100047.44;;;5.06;53.29
63347;BME280;49472;49.880;8.650;2023-02-26T05:40:44;100049.69;;;4.77;54.08
63347;BME280;49472;49.880;8.650;2023-02-26T05:43:09;100053.19;;;4.57;54.09
63347;BME280;49472;49.880;8.650;2023-02-26T05:45:35;100064.22;;;4.74;54.33
63347;BME280;49472;49.880;8.650;2023-02-26T05:48:00;100058.09;;;4.78;53.82
63347;BME280;49472;49.880;8.650;2023-02-26T05:50:26;100059.22;;;5.07;52.85
63347;BME280;49472;49.880;8.650;2023-02-26T05:52:51;100065.47;;;5.17;53.18
63347;BME280;49472;49.880;8.650;2023-02-26T05:55:16;100071.13;;;4.70;54.27
63347;BME280;49472;49.880;8.650;2023-02-26T05:57:42;100071.25;;;4.86;53.84
63347;BME280;49472;49.880;8.650;2023-02-26T06:00:08;100076.22;;;4.88;53.31
63347;BME280;49472;49.880;8.650;2023-02-26T06:02:33;100085.53;;;4.87;53.94
63347;BME280;49472;49.880;8.650;2023-02-26T06:04:59;100080.31;;;4.73;53.49
63347;BME280;49472;49.880;8.650;2023-02-26T06:07:24;100079.94;;;4.63;54.07
63347;BME280;49472;49.880;8.650;2023-02-26T06:09:49;100080.56;;;4.68;54.31
63347;BME280;49472;49.880;8.650;2023-02-26T06:12:14;100084.03;;;4.83;53.33
63347;BME280;49472;49.880;8.650;2023-02-26T06:14:40;100094.91;;;4.85;53.35
63347;BME280;49472;49.880;8.650;2023-02-26T06:17:05;100095.13;;;4.81;53.68
63347;BME280;49472;49.880;8.650;2023-02-26T06:19:31;100099.47;;;4.78;53.38
63347;BME280;49472;49.880;8.650;2023-02-26T06:21:56;100102.50;;;4.85;53.18
63347;BME280;49472;49.880;8.650;2023-02-26T06:24:21;100103.19;;;4.71;53.63
63347;BME280;49472;49.880;8.650;2023-02-26T06:26:47;100121.31;;;4.81;53.15
63347;BME280;49472;49.880;8.650;2023-02-26T06:29:12;100121.88;;;5.04;52.52
63347;BME280;49472;49.880;8.650;2023-02-26T06:31:37;100133.75;;;5.20;52.29
63347;BME280;49472;49.880;8.650;2023-02-26T06:34:03;100133.97;;;5.16;52.39
63347;BME280;49472;49.880;8.650;2023-02-26T06:36:28;100133.91;;;5.17;52.19
63347;BME280;49472;49.880;8.650;2023-02-26T06:38:54;100137.91;;;4.87;52.75
63347;BME280;49472;49.880;8.650;2023-02-26T06:41:19;100146.13;;;4.92;52.95
63347;BME280;49472;49.880;8.650;2023-02-26T06:43:44;100156.88;;;5.14;52.23
63347;BME280;49472;49.880;8.650;2023-02-26T06:46:10;100150.59;;;5.04;52.29
63347;BME280;49472;49.880;8.650;2023-02-26T06:48:35;100159.69;;;5.26;52.51
63347;BME280;49472;49.880;8.650;2023-02-26T06:51:00;100167.84;;;4.96;52.82
63347;BME280;49472;49.880;8.650;2023-02-26T06:53:26;100168.63;;;4.98;52.46
63347;BME280;49472;49.880;8.650;2023-02-26T06:55:51;100176.81;;;5.03;53.12
63347;BME280;49472;49.880;8.650;2023-02-26T06:58:17;100175.03;;;5.05;52.62
63347;BME280;49472;49.880;8.650;2023-02-26T07:00:43;100186.88;;;5.05;52.51
63347;BME280;49472;49.880;8.650;2023-02-26T07:03:11;100186.22;;;5.18;52.55
63347;BME280;49472;49.880;8.650;2023-02-26T07:05:37;100192.63;;;4.72;53.22
63347;BME280;49472;49.880;8.650;2023-02-26T07:08:02;100198.88;;;5.18;52.55
63347;BME280;49472;49.880;8.650;2023-02-26T07:10:31;100193.25;;;5.48;52.15
63347;BME280;49472;49.880;8.650;2023-02-26T07:12:57;100201.16;;;5.25;52.20
63347;BME280;49472;49.880;8.650;2023-02-26T07:15:22;100207.25;;;5.38;52.05
63347;BME280;49472;49.880;8.650;2023-02-26T07:17:47;100206.66;;;5.33;52.24
63347;BME280;49472;49.880;8.650;2023-02-26T07:20:13;100206.75;;;4.95;52.72
63347;BME280;49472;49.880;8.650;2023-02-26T07:22:38;100215.28;;;5.29;52.32
63347;BME280;49472;49.880;8.650;2023-02-26T07:25:04;100217.09;;;5.27;51.99
63347;BME280;49472;49.880;8.650;2023-02-26T07:27:31;100215.59;;;5.22;52.24
63347;BME280;49472;49.880;8.650;2023-02-26T07:29:58;100214.88;;;5.38;52.27
63347;BME280;49472;49.880;8.650;2023-02-26T07:32:23;100210.56;;;5.04;52.65
63347;BME280;49472;49.880;8.650;2023-02-26T07:34:48;100210.09;;;5.14;52.62
63347;BME280;49472;49.880;8.650;2023-02-26T07:37:14;100213.66;;;5.28;52.15
63347;BME280;49472;49.880;8.650;2023-02-26T07:39:39;100229.03;;;5.25;52.50
63347;BME280;49472;49.880;8.650;2023-02-26T07:42:04;100224.34;;;4.98;52.42
63347;BME280;49472;49.880;8.650;2023-02-26T07:44:30;100234.69;;;5.64;51.91
63347;BME280;49472;49.880;8.650;2023-02-26T07:46:55;100232.91;;;5.49;51.26
63347;BME280;49472;49.880;8.650;2023-02-26T07:49:20;100244.31;;;5.40;52.17
63347;BME280;49472;49.880;8.650;2023-02-26T07:51:46;100239.38;;;5.90;51.36
63347;BME280;49472;49.880;8.650;2023-02-26T07:54:12;100241.56;;;5.62;50.91
63347;BME280;49472;49.880;8.650;2023-02-26T07:56:38;100238.28;;;5.78;51.39
63347;BME280;49472;49.880;8.650;2023-02-26T07:59:05;100248.81;;;5.70;51.07
63347;BME280;49472;49.880;8.650;2023-02-26T08:01:30;100252.22;;;6.04;50.08
63347;BME280;49472;49.880;8.650;2023-02-26T08:03:56;100260.63;;;5.87;50.83
63347;BME280;49472;49.880;8.650;2023-02-26T08:06:21;100263.50;;;5.81;50.86
63347;BME280;49472;49.880;8.650;2023-02-26T08:08:46;100260.94;;;5.81;51.11
63347;BME280;49472;49.880;8.650;2023-02-26T08:11:11;100266.63;;;6.03;50.56
63347;BME280;49472;49.880;8.650;2023-02-26T08:13:37;100270.31;;;6.31;49.55
63347;BME280;49472;49.880;8.650;2023-02-26T08:16:02;100273.78;;;6.13;49.77
63347;BME280;49472;49.880;8.650;2023-02-26T08:18:27;100272.59;;;6.02;49.82
63347;BME280;49472;49.880;8.650;2023-02-26T08:20:53;100274.44;;;6.16;49.57
63347;BME280;49472;49.880;8.650;2023-02-26T08:23:18;100279.19;;;6.22;50.13
63347;BME280;49472;49.880;8.650;2023-02-26T08:25:44;100279.50;;;6.49;49.42
63347;BME280;49472;49.880;8.650;2023-02-26T08:28:10;100280.34;;;6.17;49.67
63347;BME280;49472;49.880;8.650;2023-02-26T08:30:35;100284.19;;;6.73;48.96
63347;BME280;49472;49.880;8.650;2023-02-26T08:33:00;100283.22;;;7.23;48.00
63347;BME280;49472;49.880;8.650;2023-02-26T08:35:26;100297.00;;;6.87;48.28
63347;BME280;49472;49.880;8.650;2023-02-26T08:37:51;100298.06;;;6.99;48.11
63347;BME280;49472;49.880;8.650;2023-02-26T08:40:17;100296.81;;;7.22;47.87
63347;BME280;49472;49.880;8.650;2023-02-26T08:42:42;100302.72;;;7.23;47.34
63347;BME280;49472;49.880;8.650;2023-02-26T08:45:08;100303.75;;;7.34;48.02
63347;BME280;49472;49.880;8.650;2023-02-26T08:47:33;100305.91;;;7.26;47.60
63347;BME280;49472;49.880;8.650;2023-02-26T08:49:59;100306.84;;;6.93;47.29
63347;BME280;49472;49.880;8.650;2023-02-26T08:52:24;100315.03;;;6.83;47.30
63347;BME280;49472;49.880;8.650;2023-02-26T08:54:50;100322.50;;;6.86;47.74
63347;BME280;49472;49.880;8.650;2023-02-26T08:57:15;100320.22;;;7.13;46.87
63347;BME280;49472;49.880;8.650;2023-02-26T08:59:42;100333.06;;;7.42;46.81
63347;BME280;49472;49.880;8.650;2023-02-26T09:02:10;100324.78;;;7.38;46.07
63347;BME280;49472;49.880;8.650;2023-02-26T09:04:35;100339.81;;;7.11;46.67
63347;BME280;49472;49.880;8.650;2023-02-26T09:07:00;100335.25;;;7.48;46.33
63347;BME280;49472;49.880;8.650;2023-02-26T09:09:26;100339.78;;;7.43;45.78
63347;BME280;49472;49.880;8.650;2023-02-26T09:11:51;100335.50;;;7.59;45.31
63347;BME280;49472;49.880;8.650;2023-02-26T09:14:16;100343.38;;;7.85;45.49
63347;BME280;49472;49.880;8.650;2023-02-26T09:16:41;100345.63;;;7.75;44.83
63347;BME280;49472;49.880;8.650;2023-02-26T09:19:07;100347.75;;;7.21;45.33
63347;BME280;49472;49.880;8.650;2023-02-26T09:21:32;100349.03;;;7.90;44.59
63347;BME280;49472;49.880;8.650;2023-02-26T09:23:59;100345.00;;;7.71;44.30
63347;BME280;49472;49.880;8.650;2023-02-26T09:26:25;100349.97;;;7.89;44.02
63347;BME280;49472;49.880;8.650;2023-02-26T09:28:50;100347.81;;;7.35;44.10
63347;BME280;49472;49.880;8.650;2023-02-26T09:31:16;100355.84;;;7.59;43.88
63347;BME280;49472;49.880;8.650;2023-02-26T09:33:41;100354.31;;;7.41;43.87
63347;BME280;49472;49.880;8.650;2023-02-26T09:36:06;100354.50;;;7.68;43.59
63347;BME280;49472;49.880;8.650;2023-02-26T09:38:32;100355.88;;;7.43;43.72
63347;BME280;49472;49.880;8.650;2023-02-26T09:41:06;100363.81;;;7.37;43.88
63347;BME280;49472;49.880;8.650;2023-02-26T09:46:44;100376.59;;;7.67;43.12
63347;BME280;49472;49.880;8.650;2023-02-26T09:49:26;100371.31;;;7.70;43.67
63347;BME280;49472;49.880;8.650;2023-02-26T09:51:57;100384.44;;;7.94;43.41
63347;BME280;49472;49.880;8.650;2023-02-26T09:54:28;100380.66;;;8.16;43.11
63347;BME280;49472;49.880;8.650;2023-02-26T09:56:58;100395.25;;;7.98;43.20
63347;BME280;49472;49.880;8.650;2023-02-26T09:59:26;100379.75;;;8.17;42.81
63347;BME280;49472;49.880;8.650;2023-02-26T10:04:48;100385.84;;;8.14;42.88
63347;BME280;49472;49.880;8.650;2023-02-26T10:10:32;100387.31;;;8.33;43.11
63347;BME280;49472;49.880;8.650;2023-02-26T10:12:59;100389.06;;;8.32;42.58
63347;BME280;49472;49.880;8.650;2023-02-26T10:15:37;100388.53;;;8.41;42.41
63347;BME280;49472;49.880;8.650;2023-02-26T10:18:08;100393.59;;;8.27;42.67
63347;BME280;49472;49.880;8.650;2023-02-26T10:23:23;100398.25;;;9.62;40.52
63347;BME280;49472;49.880;8.650;2023-02-26T10:26:18;100405.22;;;9.46;40.30
63347;BME280;49472;49.880;8.650;2023-02-26T10:31:42;100398.41;;;9.86;40.20
63347;BME280;49472;49.880;8.650;2023-02-26T10:34:28;100395.72;;;11.04;37.75
63347;BME280;49472;49.880;8.650;2023-02-26T10:39:58;100397.94;;;11.46;37.38
63347;BME280;49472;49.880;8.650;2023-02-26T10:42:32;100402.25;;;10.96;37.16
63347;BME280;49472;49.880;8.650;2023-02-26T10:47:55;100409.31;;;9.75;39.72
63347;BME280;49472;49.880;8.650;2023-02-26T10:50:23;100411.28;;;9.57;39.83
63347;BME280;49472;49.880;8.650;2023-02-26T10:52:49;100404.09;;;9.23;40.53
63347;BME280;49472;49.880;8.650;2023-02-26T10:58:22;100409.22;;;9.08;40.35
63347;BME280;49472;49.880;8.650;2023-02-26T11:00:49;100417.56;;;9.10;40.25
63347;BME280;49472;49.880;8.650;2023-02-26T11:03:21;100416.75;;;9.10;40.30
63347;BME280;49472;49.880;8.650;2023-02-26T11:05:47;100418.81;;;8.90;40.52
63347;BME280;49472;49.880;8.650;2023-02-26T11:08:26;100421.44;;;9.03;40.17
63347;BME280;49472;49.880;8.650;2023-02-26T11:10:59;100422.19;;;9.47;40.22
63347;BME280;49472;49.880;8.650;2023-02-26T11:13:28;100419.25;;;9.80;39.33
63347;BME280;49472;49.880;8.650;2023-02-26T11:15:56;100416.84;;;9.23;39.07
63347;BME280;49472;49.880;8.650;2023-02-26T11:18:26;100423.41;;;8.69;39.67
63347;BME280;49472;49.880;8.650;2023-02-26T11:20:55;100428.72;;;9.09;39.98
63347;BME280;49472;49.880;8.650;2023-02-26T11:23:26;100424.91;;;9.44;39.81
63347;BME280;49472;49.880;8.650;2023-02-26T11:25:59;100423.69;;;9.22;39.51
63347;BME280;49472;49.880;8.650;2023-02-26T11:28:48;100420.59;;;9.17;39.43
63347;BME280;49472;49.880;8.650;2023-02-26T11:31:19;100418.78;;;9.46;39.57
63347;BME280;49472;49.880;8.650;2023-02-26T11:34:04;100411.25;;;9.72;39.41
63347;BME280;49472;49.880;8.650;2023-02-26T11:36:31;100426.09;;;9.38;39.47
63347;BME280;49472;49.880;8.650;2023-02-26T11:39:04;100430.97;;;9.55;39.01
63347;BME280;49472;49.880;8.650;2023-02-26T11:41:35;100425.31;;;9.65;39.53
63347;BME280;49472;49.880;8.650;2023-02-26T11:44:05;100424.78;;;9.60;39.23
63347;BME280;49472;49.880;8.650;2023-02-26T11:46:37;100417.16;;;9.72;38.69
63347;BME280;49472;49.880;8.650;2023-02-26T11:49:05;100411.59;;;9.39;38.28
63347;BME280;49472;49.880;8.650;2023-02-26T11:51:34;100416.09;;;9.35;39.20
63347;BME280;49472;49.880;8.650;2023-02-26T11:54:00;100418.84;;;9.59;38.70
63347;BME280;49472;49.880;8.650;2023-02-26T11:56:36;100410.81;;;9.92;38.22
63347;BME280;49472;49.880;8.650;2023-02-26T11:59:17;100418.22;;;9.83;39.00
63347;BME280;49472;49.880;8.650;2023-02-26T12:01:43;100416.09;;;10.42;37.83
63347;BME280;49472;49.880;8.650;2023-02-26T12:04:10;100406.59;;;10.31;37.94
63347;BME280;49472;49.880;8.650;2023-02-26T12:06:36;100423.41;;;10.08;38.28
63347;BME280;49472;49.880;8.650;2023-02-26T12:09:02;100405.53;;;11.35;36.52
63347;BME280;49472;49.880;8.650;2023-02-26T12:14:21;100398.94;;;12.27;35.16
63347;BME280;49472;49.880;8.650;2023-02-26T12:27:30;100388.25;;;14.91;31.15
63347;BME280;49472;49.880;8.650;2023-02-26T12:33:17;100397.34;;;15.05;31.48
63347;BME280;49472;49.880;8.650;2023-02-26T12:38:53;100393.63;;;16.53;29.40
63347;BME280;49472;49.880;8.650;2023-02-26T12:41:30;100397.59;;;16.47;29.33
63347;BME280;49472;49.880;8.650;2023-02-26T12:44:03;100378.25;;;17.34;27.97
63347;BME280;49472;49.880;8.650;2023-02-26T12:47:51;100395.16;;;16.83;29.52
63347;BME280;49472;49.880;8.650;2023-02-26T12:50:02;100389.22;;;17.01;28.34
63347;BME280;49472;49.880;8.650;2023-02-26T12:55:38;100394.72;;;18.65;27.63
63347;BME280;49472;49.880;8.650;2023-02-26T13:01:42;100410.69;;;17.01;28.46
63347;BME280;49472;49.880;8.650;2023-02-26T13:09:32;100412.31;;;16.75;28.66
63347;BME280;49472;49.880;8.650;2023-02-26T13:15:00;100427.94;;;14.16;31.10
63347;BME280;49472;49.880;8.650;2023-02-26T13:20:10;100428.16;;;13.59;32.00
63347;BME280;49472;49.880;8.650;2023-02-26T13:22:46;100446.22;;;13.25;32.58
63347;BME280;49472;49.880;8.650;2023-02-26T13:25:29;100446.31;;;12.79;33.52
63347;BME280;49472;49.880;8.650;2023-02-26T13:27:57;100441.06;;;13.14;33.45
63347;BME280;49472;49.880;8.650;2023-02-26T13:30:54;100442.78;;;13.59;33.27
63347;BME280;49472;49.880;8.650;2023-02-26T13:33:24;100440.94;;;13.04;33.23
63347;BME280;49472;49.880;8.650;2023-02-26T13:35:53;100433.28;;;12.59;33.29
63347;BME280;49472;49.880;8.650;2023-02-26T13:43:58;100436.47;;;11.92;33.87
63347;BME280;49472;49.880;8.650;2023-02-26T13:46:46;100443.00;;;11.97;33.83
63347;BME280;49472;49.880;8.650;2023-02-26T13:49:22;100445.44;;;11.74;34.87
63347;BME280;49472;49.880;8.650;2023-02-26T13:51:52;100444.13;;;11.68;34.39
63347;BME280;49472;49.880;8.650;2023-02-26T13:57:24;100442.38;;;11.69;34.26
63347;BME280;49472;49.880;8.650;2023-02-26T14:00:07;100450.22;;;11.18;34.71
63347;BME280;49472;49.880;8.650;2023-02-26T14:02:47;100464.69;;;10.93;35.27
63347;BME280;49472;49.880;8.650;2023-02-26T14:10:25;100464.81;;;10.79;34.79
63347;BME280;49472;49.880;8.650;2023-02-26T14:24:05;100480.16;;;10.92;33.96
63347;BME280;49472;49.880;8.650;2023-02-26T14:26:32;100483.31;;;10.82;33.25
63347;BME280;49472;49.880;8.650;2023-02-26T14:32:14;100489.47;;;10.93;33.76
63347;BME280;49472;49.880;8.650;2023-02-26T14:34:51;100481.50;;;11.34;33.34
63347;BME280;49472;49.880;8.650;2023-02-26T14:37:22;100471.00;;;14.44;30.78
63347;BME280;49472;49.880;8.650;2023-02-26T14:42:22;100464.06;;;15.97;28.30
63347;BME280;49472;49.880;8.650;2023-02-26T14:45:05;100469.06;;;16.27;28.25
63347;BME280;49472;49.880;8.650;2023-02-26T14:47:33;100468.88;;;14.91;28.86
63347;BME280;49472;49.880;8.650;2023-02-26T14:49:58;100478.03;;;13.57;30.33
63347;BME280;49472;49.880;8.650;2023-02-26T14:55:33;100487.66;;;13.87;30.33
63347;BME280;49472;49.880;8.650;2023-02-26T14:58:28;100485.66;;;12.91;31.01
63347;BME280;49472;49.880;8.650;2023-02-26T15:04:10;100490.88;;;15.55;28.61
63347;BME280;49472;49.880;8.650;2023-02-26T15:06:45;100478.84;;;14.01;28.86
63347;BME280;49472;49.880;8.650;2023-02-26T15:09:20;100495.66;;;13.61;29.89
63347;BME280;49472;49.880;8.650;2023-02-26T15:12:04;100489.09;;;14.33;29.07
63347;BME280;49472;49.880;8.650;2023-02-26T15:18:10;100505.97;;;13.16;30.82
63347;BME280;49472;49.880;8.650;2023-02-26T15:23:40;100500.56;;;12.28;32.30
63347;BME280;49472;49.880;8.650;2023-02-26T15:26:09;100508.09;;;11.94;31.59